Terminal Aerodrome Forecast
Issued by NWS

Home | Current Version | Previous Version | Graphics & Text | Print | Product List | Glossary On
Versions: 1 2 3 4 5 6 7 8 9 10 11 12 13 14 15 16
000
FTUS45 KGGW 182300
TAFSDY
TAF
KSDY 182320Z 1900/1924 VRB03KT P6SM FEW018
     FM190600 VRB06KT 5SM BR BKN019
     FM191800 VRB05KT P6SM FEW250
      AMD LTD TO CLD VIS AND WIND=

USA.gov is the U.S. government's official web portal to all federal, state and local government web resources and services.